Time;durP1;ratioP1;P1;durP2;ratioP2;P2;SDS_P1;SDS_P2;PMS_P1;PMS_P2;Temp;Humidity;BMP_temperature;BMP_pressure;BME280_temperature;BME280_humidity;BME280_pressure;Samples;Min_cycle;Max_cycle;Signal;HPM_P1;HPM_P2
2023/03/26 00:01:25;;;;;;;9.98;2.08;;;9.20;78.60;;;;;;4964026;28;20125;-76
2023/03/26 00:03:56;;;;;;;7.22;1.67;;;9.20;78.20;;;;;;4960297;28;20042;-76
2023/03/26 00:06:24;;;;;;;9.15;2.72;;;9.20;78.20;;;;;;4961618;28;20095;-75
2023/03/26 00:08:51;;;;;;;10.23;2.17;;;9.10;78.00;;;;;;5011339;28;20129;-75
2023/03/26 00:11:19;;;;;;;8.77;2.28;;;9.10;78.00;;;;;;4979161;28;20161;-75
2023/03/26 00:13:46;;;;;;;7.00;2.10;;;9.10;78.00;;;;;;4978847;28;21396;-76
2023/03/26 00:16:14;;;;;;;10.20;2.30;;;9.10;78.10;;;;;;5049978;28;20110;-76
2023/03/26 00:18:41;;;;;;;11.05;2.97;;;9.00;78.00;;;;;;4972988;28;20065;-75
2023/03/26 00:21:08;;;;;;;11.70;2.25;;;9.00;78.00;;;;;;4952655;28;20042;-76
2023/03/26 00:23:34;;;;;;;9.88;2.15;;;9.00;78.00;;;;;;4968041;28;20070;-75
2023/03/26 00:26:01;;;;;;;13.65;2.55;;;8.90;78.00;;;;;;5069519;28;20096;-77
2023/03/26 00:28:28;;;;;;;11.75;2.83;;;8.90;78.10;;;;;;4969156;28;20448;-76
2023/03/26 00:31:05;;;;;;;9.45;3.08;;;8.90;78.10;;;;;;5058914;28;20108;-76
2023/03/26 00:33:32;;;;;;;10.43;2.35;;;8.90;78.20;;;;;;4955997;28;20070;-76
2023/03/26 00:35:59;;;;;;;9.10;2.08;;;8.80;78.30;;;;;;4970069;28;20130;-76
2023/03/26 00:38:27;;;;;;;7.53;1.98;;;8.80;78.40;;;;;;5049784;28;20085;-76
2023/03/26 00:40:53;;;;;;;7.05;1.92;;;8.80;78.50;;;;;;4941188;28;20126;-77
2023/03/26 00:43:21;;;;;;;8.05;2.38;;;8.80;78.50;;;;;;4935283;28;20054;-76
2023/03/26 00:45:55;;;;;;;10.98;2.00;;;8.80;78.50;;;;;;4979623;28;20105;-74
2023/03/26 00:48:22;;;;;;;7.35;1.70;;;8.80;78.50;;;;;;4990200;28;20092;-76
2023/03/26 00:50:48;;;;;;;8.48;2.00;;;8.80;78.60;;;;;;4998128;28;20049;-76
2023/03/26 00:53:15;;;;;;;5.78;1.80;;;8.80;78.60;;;;;;4986981;28;20034;-76
2023/03/26 00:55:44;;;;;;;7.65;2.00;;;8.80;78.60;;;;;;4970889;28;20034;-76
2023/03/26 00:58:11;;;;;;;8.70;2.20;;;8.80;78.70;;;;;;4938660;28;20050;-76
2023/03/26 01:00:56;;;;;;;8.80;1.52;;;8.80;78.70;;;;;;4952223;28;20183;-77
2023/03/26 01:03:23;;;;;;;;;;;8.80;78.70;;;;;;4968672;28;20521;-76
2023/03/26 01:05:51;;;;;;;8.43;2.10;;;8.70;78.50;;;;;;4969888;28;20032;-76
2023/03/26 01:08:26;;;;;;;10.00;2.00;;;8.70;78.90;;;;;;5035881;28;20078;-76
2023/03/26 01:11:01;;;;;;;9.50;2.00;;;8.70;78.80;;;;;;4952173;28;20047;-76
2023/03/26 01:13:30;;;;;;;10.35;2.63;;;8.70;78.80;;;;;;5002956;28;20043;-76
2023/03/26 01:15:56;;;;;;;6.00;1.70;;;8.80;79.00;;;;;;4982635;28;20042;-76
2023/03/26 01:18:26;;;;;;;10.85;1.88;;;8.80;79.00;;;;;;5035094;28;20039;-76
2023/03/26 01:20:57;;;;;;;6.28;1.98;;;8.80;79.10;;;;;;4942650;28;20038;-76
2023/03/26 01:23:34;;;;;;;8.43;1.73;;;8.80;79.20;;;;;;4955416;28;20046;-76
2023/03/26 01:26:44;;;;;;;8.43;1.90;;;8.80;79.30;;;;;;4954995;28;20058;-76
2023/03/26 01:29:28;;;;;;;9.45;2.30;;;8.80;79.20;;;;;;4951710;28;20109;-76
2023/03/26 01:32:08;;;;;;;8.13;1.65;;;8.80;79.20;;;;;;4970612;28;20086;-77
2023/03/26 01:34:33;;;;;;;9.45;2.10;;;8.80;79.20;;;;;;5093121;28;20528;-76
2023/03/26 01:37:29;;;;;;;7.78;2.03;;;8.80;79.30;;;;;;4990421;28;20077;-77
2023/03/26 01:40:10;;;;;;;8.52;2.03;;;8.80;79.30;;;;;;4974382;28;20456;-76
2023/03/26 01:42:46;;;;;;;7.70;2.10;;;8.80;79.40;;;;;;4983235;28;20475;-76
2023/03/26 01:45:20;;;;;;;11.70;2.13;;;8.80;79.40;;;;;;4967224;28;20129;-76
2023/03/26 01:47:46;;;;;;;9.83;2.30;;;8.80;79.40;;;;;;4990411;28;20129;-76
2023/03/26 01:50:12;;;;;;;8.13;2.10;;;8.80;79.40;;;;;;4969832;28;20393;-76
2023/03/26 01:52:38;;;;;;;8.23;1.70;;;8.80;79.50;;;;;;4971949;28;20039;-76
2023/03/26 01:55:05;;;;;;;5.22;1.90;;;8.90;79.50;;;;;;4952825;28;20044;-76
2023/03/26 01:58:15;;;;;;;7.32;1.80;;;8.90;79.50;;;;;;5043112;28;20042;-76
2023/03/26 02:01:04;;;;;;;6.75;1.80;;;8.90;79.40;;;;;;5051325;28;20047;-76
2023/03/26 02:03:33;;;;;;;7.65;1.70;;;8.90;79.40;;;;;;5020461;28;20129;-75
2023/03/26 02:06:14;;;;;;;7.55;2.15;;;8.80;79.40;;;;;;4996046;28;20039;-76
2023/03/26 02:09:04;;;;;;;8.13;1.38;;;8.90;79.40;;;;;;4967360;28;20047;-76
2023/03/26 02:11:30;;;;;;;7.35;1.65;;;8.90;79.20;;;;;;5054408;28;20078;-76
2023/03/26 02:13:56;;;;;;;7.82;2.67;;;8.90;79.20;;;;;;4978832;28;20070;-76
2023/03/26 02:16:22;;;;;;;9.60;1.92;;;8.90;79.00;;;;;;4990098;28;20515;-75
2023/03/26 02:18:54;;;;;;;9.25;2.10;;;8.80;78.80;;;;;;4955761;28;20039;-76
2023/03/26 02:21:24;;;;;;;7.13;1.77;;;8.90;78.70;;;;;;4954761;28;20104;-77
2023/03/26 02:24:01;;;;;;;5.18;1.45;;;8.90;78.70;;;;;;4957955;28;20549;-77
2023/03/26 02:26:29;;;;;;;4.65;1.33;;;8.80;78.60;;;;;;4975987;28;20081;-77
2023/03/26 02:28:55;;;;;;;6.90;1.75;;;8.80;78.60;;;;;;4953822;28;20053;-77
2023/03/26 02:31:24;;;;;;;5.60;2.13;;;8.80;78.60;;;;;;4965393;28;20458;-77
2023/03/26 02:33:51;;;;;;;7.45;2.15;;;8.80;78.60;;;;;;5040540;28;20050;-77
2023/03/26 02:36:23;;;;;;;5.32;1.50;;;8.80;78.60;;;;;;5050605;28;20037;-77
2023/03/26 02:38:50;;;;;;;4.75;1.40;;;8.80;78.60;;;;;;4954443;28;20500;-77
2023/03/26 02:41:16;;;;;;;8.15;1.55;;;8.80;78.60;;;;;;4954123;28;20134;-77
2023/03/26 02:43:41;;;;;;;5.93;1.65;;;8.80;78.60;;;;;;4956280;28;20165;-77
2023/03/26 02:46:07;;;;;;;5.72;1.48;;;8.80;78.70;;;;;;5049248;28;20039;-78
2023/03/26 02:48:36;;;;;;;3.67;1.50;;;8.80;78.70;;;;;;4970335;28;20046;-77
2023/03/26 02:51:03;;;;;;;4.50;1.42;;;8.80;78.70;;;;;;5056905;28;20061;-77
2023/03/26 02:53:29;;;;;;;5.00;1.40;;;8.80;78.80;;;;;;4989590;28;20053;-77
2023/03/26 02:55:59;;;;;;;4.53;1.50;;;8.80;78.80;;;;;;4973165;28;20038;-77
2023/03/26 02:58:25;;;;;;;6.68;1.38;;;8.80;78.80;;;;;;4954859;28;20035;-76
2023/03/26 03:00:54;;;;;;;4.90;1.77;;;8.80;78.80;;;;;;4970397;28;20050;-77
2023/03/26 03:03:25;;;;;;;7.45;1.60;;;8.80;78.80;;;;;;4970204;28;20039;-77
2023/03/26 03:05:51;;;;;;;5.40;1.77;;;8.80;78.80;;;;;;5029300;28;20040;-77
2023/03/26 03:08:22;;;;;;;3.22;1.40;;;8.80;78.80;;;;;;4953864;28;20491;-77
2023/03/26 03:11:01;;;;;;;4.35;1.17;;;8.80;78.80;;;;;;5046404;28;20047;-77
2023/03/26 03:13:28;;;;;;;6.03;1.52;;;8.80;78.80;;;;;;5071182;28;20039;-77
2023/03/26 03:15:54;;;;;;;4.53;1.55;;;8.80;78.70;;;;;;5071367;28;20068;-77
2023/03/26 03:18:21;;;;;;;4.95;1.58;;;8.70;78.60;;;;;;4980721;28;20039;-77
2023/03/26 03:20:46;;;;;;;6.45;1.70;;;8.80;78.70;;;;;;4969226;28;20038;-77
2023/03/26 03:23:12;;;;;;;7.40;1.70;;;8.70;78.60;;;;;;4989776;28;20095;-77
2023/03/26 03:25:39;;;;;;;5.30;1.48;;;8.70;78.50;;;;;;4994237;28;20062;-77
2023/03/26 03:28:06;;;;;;;4.68;1.35;;;8.70;78.50;;;;;;5003984;28;20086;-77
2023/03/26 03:30:32;;;;;;;2.25;1.13;;;8.70;78.50;;;;;;5048346;28;20041;-77
2023/03/26 03:32:58;;;;;;;3.95;1.65;;;8.70;78.50;;;;;;4956115;28;20054;-77
2023/03/26 03:35:26;;;;;;;7.60;2.05;;;8.70;78.50;;;;;;4948541;28;20039;-77
2023/03/26 03:37:52;;;;;;;3.83;1.42;;;8.70;78.40;;;;;;5037562;28;20065;-77
2023/03/26 03:40:18;;;;;;;6.75;1.75;;;8.70;78.40;;;;;;4937056;28;20093;-77
2023/03/26 03:42:45;;;;;;;6.72;1.60;;;8.60;78.30;;;;;;5053872;28;20041;-77
2023/03/26 03:45:12;;;;;;;6.00;1.80;;;8.60;78.30;;;;;;5008888;28;20053;-77
2023/03/26 03:47:38;;;;;;;5.07;1.38;;;8.60;78.30;;;;;;4972411;28;20038;-76
2023/03/26 03:50:05;;;;;;;5.40;1.58;;;8.60;78.30;;;;;;4960140;28;20100;-76
2023/03/26 03:52:31;;;;;;;12.15;2.55;;;8.60;78.40;;;;;;4978286;28;20127;-76
2023/03/26 03:54:59;;;;;;;5.43;2.00;;;8.60;78.40;;;;;;4977566;28;20549;-76
2023/03/26 03:57:25;;;;;;;5.00;1.40;;;8.60;78.40;;;;;;5020235;28;20074;-77
2023/03/26 03:59:51;;;;;;;4.22;1.27;;;8.60;78.50;;;;;;4952326;28;20506;-77
2023/03/26 04:02:24;;;;;;;3.53;1.40;;;8.50;78.50;;;;;;4936396;28;20073;-77
2023/03/26 04:04:51;;;;;;;6.50;1.58;;;8.50;78.60;;;;;;4998702;28;20103;-77
2023/03/26 04:07:18;;;;;;;4.93;1.40;;;8.50;78.70;;;;;;4968729;28;20051;-77
2023/03/26 04:09:47;;;;;;;7.35;1.67;;;8.50;78.70;;;;;;4937429;28;20091;-77
2023/03/26 04:12:12;;;;;;;4.18;1.40;;;8.50;78.80;;;;;;4952825;28;20078;-77
2023/03/26 04:14:38;;;;;;;4.63;1.45;;;8.50;78.90;;;;;;4952653;28;20043;-77
2023/03/26 04:17:04;;;;;;;7.85;1.85;;;8.50;79.00;;;;;;4994069;28;20077;-77
2023/03/26 04:19:30;;;;;;;4.90;1.52;;;8.50;79.10;;;;;;4957783;28;20050;-77
2023/03/26 04:22:01;;;;;;;5.47;1.85;;;8.50;79.20;;;;;;4959517;28;20050;-77
2023/03/26 04:24:28;;;;;;;8.52;1.90;;;8.50;79.20;;;;;;4984394;28;20050;-77
2023/03/26 04:26:57;;;;;;;3.47;1.30;;;8.50;79.30;;;;;;4953295;28;20125;-77
2023/03/26 04:29:26;;;;;;;5.85;2.05;;;8.50;79.30;;;;;;4968270;28;20108;-77
2023/03/26 04:31:57;;;;;;;5.65;1.70;;;8.50;79.30;;;;;;4947033;28;20520;-77
2023/03/26 04:34:24;;;;;;;6.40;1.90;;;8.50;79.20;;;;;;4952214;28;20035;-77
2023/03/26 04:36:53;;;;;;;4.43;1.50;;;8.50;79.30;;;;;;4952125;28;20130;-77
2023/03/26 04:39:20;;;;;;;3.85;1.50;;;8.50;79.30;;;;;;4952442;28;20051;-76
2023/03/26 04:41:47;;;;;;;7.55;2.42;;;8.50;79.30;;;;;;5050163;28;20090;-77
2023/03/26 04:44:16;;;;;;;3.47;1.48;;;8.50;79.30;;;;;;4952171;28;20092;-77
2023/03/26 04:46:42;;;;;;;3.17;1.10;;;8.50;79.30;;;;;;4949200;28;20043;-77
2023/03/26 04:49:08;;;;;;;4.80;1.50;;;8.60;79.40;;;;;;5075922;28;20054;-77
2023/03/26 04:51:40;;;;;;;5.22;1.38;;;8.50;79.30;;;;;;4981809;28;20051;-77
2023/03/26 04:54:07;;;;;;;3.67;1.08;;;8.60;79.40;;;;;;4971222;28;20097;-77
2023/03/26 04:56:58;;;;;;;7.03;2.00;;;8.50;79.40;;;;;;4955580;28;20096;-77
2023/03/26 04:59:24;;;;;;;3.42;1.50;;;8.50;79.30;;;;;;4955228;28;20459;-77
2023/03/26 05:01:54;;;;;;;5.28;1.73;;;8.50;79.30;;;;;;4980224;28;20133;-77
2023/03/26 05:04:20;;;;;;;3.17;1.38;;;8.50;79.40;;;;;;4955180;28;20137;-77
2023/03/26 05:06:46;;;;;;;5.70;1.83;;;8.60;79.40;;;;;;4955007;28;20078;-77
2023/03/26 05:09:13;;;;;;;8.93;2.72;;;8.50;79.40;;;;;;4973593;28;20088;-77
2023/03/26 05:11:39;;;;;;;4.43;1.60;;;8.60;79.40;;;;;;4981715;28;20046;-77
2023/03/26 05:14:04;;;;;;;5.55;1.70;;;8.60;79.30;;;;;;5039580;28;20413;-77
2023/03/26 05:16:30;;;;;;;5.55;2.20;;;8.50;79.30;;;;;;4955043;28;20045;-77
2023/03/26 05:18:56;;;;;;;5.07;2.88;;;8.50;79.40;;;;;;4939688;28;20096;-77
2023/03/26 05:21:22;;;;;;;6.45;1.88;;;8.50;79.40;;;;;;5017970;28;20501;-77
2023/03/26 05:23:48;;;;;;;4.20;1.60;;;8.50;79.40;;;;;;4954794;28;20058;-77
2023/03/26 05:26:13;;;;;;;6.65;2.20;;;8.50;79.40;;;;;;5072475;28;20049;-77
2023/03/26 05:28:39;;;;;;;5.28;2.25;;;8.50;79.50;;;;;;4938760;28;20494;-77
2023/03/26 05:31:06;;;;;;;7.05;1.88;;;8.50;79.50;;;;;;4957547;28;20466;-77
2023/03/26 05:33:32;;;;;;;8.25;2.50;;;8.50;79.50;;;;;;5037771;28;20071;-77
2023/03/26 05:36:08;;;;;;;10.15;3.30;;;8.50;79.50;;;;;;4970743;28;20521;-77
2023/03/26 05:38:34;;;;;;;6.00;1.83;;;8.50;79.50;;;;;;4954036;28;20347;-77
2023/03/26 05:41:06;;;;;;;8.10;2.70;;;8.50;79.50;;;;;;5038244;28;20093;-77
2023/03/26 05:43:32;;;;;;;5.25;1.83;;;8.60;79.60;;;;;;4967216;28;20047;-77
2023/03/26 05:45:58;;;;;;;7.82;2.22;;;8.50;79.50;;;;;;5000764;28;20051;-77
2023/03/26 05:48:25;;;;;;;5.57;2.40;;;8.50;79.60;;;;;;4954271;28;20057;-77
2023/03/26 05:50:53;;;;;;;5.53;2.22;;;8.50;79.60;;;;;;5034125;28;20060;-77
2023/03/26 05:53:20;;;;;;;6.88;1.95;;;8.50;79.70;;;;;;5055210;28;20110;-77
2023/03/26 05:55:56;;;;;;;6.50;2.53;;;8.50;79.70;;;;;;5022042;28;20125;-77
2023/03/26 05:58:27;;;;;;;4.80;2.20;;;8.50;79.70;;;;;;4972162;28;20066;-77
2023/03/26 06:01:04;;;;;;;9.02;3.15;;;8.50;79.80;;;;;;4971149;28;20042;-77
2023/03/26 06:03:35;;;;;;;7.50;2.72;;;8.50;79.70;;;;;;4985400;28;20126;-77
2023/03/26 06:06:02;;;;;;;8.77;2.65;;;8.50;79.70;;;;;;4954199;28;20169;-77
2023/03/26 06:08:29;;;;;;;8.13;2.20;;;8.50;79.70;;;;;;5016593;28;20079;-77
2023/03/26 06:10:59;;;;;;;7.93;2.33;;;8.50;80.10;;;;;;4992870;28;20035;-77
2023/03/26 06:13:25;;;;;;;6.47;2.20;;;8.50;79.70;;;;;;4938894;28;20039;-77
2023/03/26 06:15:51;;;;;;;6.10;2.30;;;8.50;79.80;;;;;;4970070;28;20092;-77
2023/03/26 06:18:18;;;;;;;8.93;2.20;;;8.50;79.90;;;;;;4938335;28;20125;-77
2023/03/26 06:20:44;;;;;;;10.18;2.25;;;8.50;79.90;;;;;;5040566;28;20048;-77
2023/03/26 06:23:10;;;;;;;8.30;2.75;;;8.50;80.00;;;;;;4988729;28;20046;-77
2023/03/26 06:25:36;;;;;;;7.63;2.42;;;8.50;80.00;;;;;;4953852;28;20042;-77
2023/03/26 06:28:02;;;;;;;6.45;2.35;;;8.50;80.10;;;;;;4953662;28;20130;-77
2023/03/26 06:30:28;;;;;;;7.05;3.17;;;8.50;80.10;;;;;;4966700;28;20122;-77
2023/03/26 06:32:53;;;;;;;9.98;3.67;;;8.50;80.10;;;;;;5040942;28;20053;-77
2023/03/26 06:35:19;;;;;;;8.30;2.40;;;8.40;80.30;;;;;;4944816;28;20038;-77
2023/03/26 06:37:45;;;;;;;8.43;2.72;;;8.50;80.40;;;;;;4979317;28;20048;-77
2023/03/26 06:40:11;;;;;;;9.65;3.15;;;8.50;80.60;;;;;;5037845;28;20050;-77
2023/03/26 06:42:37;;;;;;;10.60;2.85;;;8.50;80.80;;;;;;4953641;28;20375;-77
2023/03/26 06:45:03;;;;;;;14.32;3.45;;;8.50;80.90;;;;;;5070855;28;20047;-77
2023/03/26 06:47:28;;;;;;;14.63;3.58;;;8.50;81.00;;;;;;4953623;28;20043;-77
2023/03/26 06:49:54;;;;;;;9.63;2.95;;;8.50;81.10;;;;;;4952804;28;20070;-77
2023/03/26 06:52:20;;;;;;;13.15;4.22;;;8.50;81.60;;;;;;4937447;28;20070;-77
2023/03/26 06:54:46;;;;;;;14.55;4.43;;;8.50;81.40;;;;;;4953813;28;20078;-76
2023/03/26 06:57:11;;;;;;;18.63;4.07;;;8.50;81.50;;;;;;4969000;28;20465;-77
2023/03/26 06:59:37;;;;;;;16.45;5.45;;;8.50;81.40;;;;;;5037273;28;20040;-77
2023/03/26 07:02:03;;;;;;;19.50;4.68;;;8.40;81.30;;;;;;4970178;28;20053;-77
2023/03/26 07:04:29;;;;;;;17.55;3.80;;;8.40;81.10;;;;;;4969626;28;20038;-77
2023/03/26 07:06:55;;;;;;;17.63;4.22;;;8.40;81.00;;;;;;4953129;28;20050;-77
2023/03/26 07:09:20;;;;;;;13.68;3.40;;;8.40;81.00;;;;;;4971099;28;20107;-77
2023/03/26 07:11:46;;;;;;;14.65;3.33;;;8.40;80.80;;;;;;5020335;28;20107;-77
2023/03/26 07:14:12;;;;;;;19.33;3.78;;;8.40;80.40;;;;;;4937454;28;20046;-77
2023/03/26 07:16:38;;;;;;;19.10;4.85;;;8.40;80.00;;;;;;4953115;28;20049;-78
2023/03/26 07:19:03;;;;;;;14.13;2.90;;;8.40;79.80;;;;;;4981816;28;20045;-77
2023/03/26 07:21:29;;;;;;;14.68;3.55;;;8.30;79.80;;;;;;4956985;28;20034;-77
2023/03/26 07:23:55;;;;;;;14.27;3.40;;;8.40;79.90;;;;;;4956988;28;20039;-78
2023/03/26 07:26:33;;;;;;;11.70;3.08;;;8.30;79.80;;;;;;4953495;28;20499;-76
2023/03/26 07:29:26;;;;;;;14.88;3.03;;;8.40;79.80;;;;;;4953638;28;20042;-78
2023/03/26 07:32:03;;;;;;;12.63;2.92;;;8.40;79.40;;;;;;4969238;28;20054;-77
2023/03/26 07:34:57;;;;;;;20.00;3.20;;;8.40;79.50;;;;;;4969161;28;20121;-77
2023/03/26 07:37:22;;;;;;;15.20;3.53;;;8.40;79.20;;;;;;5012695;28;20043;-77
2023/03/26 07:39:59;;;;;;;22.70;4.28;;;8.40;78.70;;;;;;5021084;28;20050;-77
2023/03/26 07:42:54;;;;;;;12.18;3.28;;;8.40;78.20;;;;;;4952993;28;20043;-78
2023/03/26 07:45:32;;;;;;;19.17;3.85;;;8.30;77.40;;;;;;4938360;28;20390;-77
2023/03/26 07:47:59;;;;;;;14.70;3.42;;;8.30;76.30;;;;;;5024673;28;20422;-77
2023/03/26 07:50:25;;;;;;;13.82;3.13;;;8.30;76.00;;;;;;5043254;28;20063;-78
2023/03/26 07:52:51;;;;;;;17.83;3.05;;;8.30;75.40;;;;;;4968645;28;20057;-77
2023/03/26 07:55:18;;;;;;;13.88;3.03;;;8.30;75.00;;;;;;4953117;28;20401;-78
2023/03/26 07:58:23;;;;;;;14.95;2.85;;;8.30;75.00;;;;;;4939265;28;20100;-77
2023/03/26 08:00:57;;;;;;;18.95;4.18;;;8.30;74.00;;;;;;4951560;28;20126;-77
2023/03/26 08:03:30;;;;;;;;;;;8.30;73.90;;;;;;4958664;28;20069;-77
2023/03/26 08:06:18;;;;;;;21.42;3.47;;;8.30;73.50;;;;;;4972906;28;19921;-77
2023/03/26 08:08:52;;;;;;;17.52;3.03;;;8.30;73.30;;;;;;4961265;28;20112;-77
2023/03/26 08:11:33;;;;;;;9.75;2.08;;;8.20;73.10;;;;;;4953159;28;20080;-77
2023/03/26 08:14:05;;;;;;;14.27;2.97;;;8.20;72.50;;;;;;4952992;28;20390;-77
2023/03/26 08:16:52;;;;;;;19.73;2.95;;;8.20;72.40;;;;;;4968757;28;20047;-77
2023/03/26 08:19:42;;;;;;;16.33;2.80;;;8.30;72.60;;;;;;4997060;28;20042;-77
2023/03/26 08:22:26;;;;;;;14.18;2.58;;;8.30;71.90;;;;;;4986781;28;20441;-78
2023/03/26 08:24:52;;;;;;;19.55;3.20;;;8.30;71.50;;;;;;4970425;28;20075;-78
2023/03/26 08:27:39;;;;;;;16.80;3.58;;;8.30;71.50;;;;;;4972185;28;20046;-77
2023/03/26 08:30:24;;;;;;;12.13;3.60;;;8.30;71.00;;;;;;4970383;28;20049;-78
2023/03/26 08:32:59;;;;;;;9.30;2.17;;;8.30;71.10;;;;;;4972913;28;20398;-78
2023/03/26 08:35:26;;;;;;;17.08;2.70;;;8.40;71.10;;;;;;4956474;28;20038;-77
2023/03/26 08:37:52;;;;;;;9.63;2.65;;;8.40;70.30;;;;;;5072267;28;20030;-77
2023/03/26 08:41:00;;;;;;;16.33;4.20;;;8.40;70.30;;;;;;4955695;28;20049;-78
2023/03/26 08:44:02;;;;;;;13.07;2.85;;;8.40;69.70;;;;;;4950813;28;20054;-77
2023/03/26 08:46:29;;;;;;;17.05;3.40;;;8.40;69.80;;;;;;4970374;28;20398;-77
2023/03/26 08:49:46;;;;;;;17.08;2.85;;;8.50;69.80;;;;;;4994235;28;20048;-78
2023/03/26 08:52:35;;;;;;;21.52;3.15;;;8.50;69.30;;;;;;5000022;28;20057;-78
2023/03/26 08:55:37;;;;;;;14.55;4.28;;;8.50;68.60;;;;;;5053845;28;20041;-77
2023/03/26 08:58:36;;;;;;;16.45;4.03;;;8.50;68.90;;;;;;5107725;28;20047;-77
2023/03/26 09:01:24;;;;;;;11.52;2.95;;;8.60;68.50;;;;;;4957034;28;20042;-77
2023/03/26 09:04:02;;;;;;;18.92;3.75;;;8.60;68.50;;;;;;4972022;28;20053;-77
2023/03/26 09:06:27;;;;;;;15.75;2.70;;;8.60;68.40;;;;;;4975938;28;20062;-76
2023/03/26 09:09:31;;;;;;;17.48;3.35;;;8.70;68.50;;;;;;4996238;28;20073;-77
2023/03/26 09:12:31;;;;;;;11.45;2.83;;;8.70;68.10;;;;;;4973537;28;20058;-81
2023/03/26 09:15:18;;;;;;;18.40;3.78;;;8.70;68.00;;;;;;4970316;28;20086;-82
2023/03/26 09:18:17;;;;;;;16.55;3.95;;;8.70;68.60;;;;;;4965873;28;20107;-79
2023/03/26 09:20:58;;;;;;;17.00;3.33;;;8.80;69.50;;;;;;4959815;28;20125;-79
2023/03/26 09:23:50;;;;;;;17.55;3.05;;;8.90;69.60;;;;;;5014964;28;20090;-81
2023/03/26 09:26:40;;;;;;;14.05;3.05;;;8.90;68.80;;;;;;4961968;28;20421;-81
2023/03/26 09:29:26;;;;;;;20.95;4.18;;;8.90;68.10;;;;;;4983462;28;20358;-81
2023/03/26 09:32:14;;;;;;;17.48;3.53;;;8.90;67.30;;;;;;4965873;28;20080;-78
2023/03/26 09:35:11;;;;;;;16.67;2.80;;;9.00;66.80;;;;;;4985566;28;20039;-81
2023/03/26 09:37:51;;;;;;;15.25;2.65;;;9.00;67.40;;;;;;4962279;28;20043;-80
2023/03/26 09:40:21;;;;;;;11.73;2.95;;;9.00;68.00;;;;;;4960869;28;20547;-80
2023/03/26 09:43:24;;;;;;;15.88;3.00;;;9.00;67.50;;;;;;4984651;28;20511;-81
2023/03/26 09:45:53;;;;;;;14.80;3.20;;;9.00;66.90;;;;;;4963536;28;20037;-81
2023/03/26 09:48:22;;;;;;;18.48;3.47;;;9.10;67.30;;;;;;5072661;28;20047;-81
2023/03/26 09:51:07;;;;;;;18.77;3.63;;;9.20;67.20;;;;;;5057371;28;21489;-81
2023/03/26 09:53:41;;;;;;;13.80;2.65;;;9.20;66.90;;;;;;5057687;28;20077;-81
2023/03/26 09:56:26;;;;;;;17.58;2.78;;;9.20;66.70;;;;;;4998641;28;20050;-80
2023/03/26 09:59:40;;;;;;;19.00;3.53;;;9.30;66.10;;;;;;4980488;28;20111;-81
2023/03/26 10:02:36;;;;;;;13.48;2.92;;;9.40;66.70;;;;;;4971617;28;20082;-81
2023/03/26 10:05:28;;;;;;;15.77;2.83;;;9.40;66.70;;;;;;4968454;28;20066;-81
2023/03/26 10:08:29;;;;;;;12.77;2.85;;;9.50;66.20;;;;;;4995159;28;20050;-79
2023/03/26 10:11:24;;;;;;;17.05;3.75;;;9.50;65.00;;;;;;4965326;28;20410;-80
2023/03/26 10:14:39;;;;;;;15.85;4.05;;;9.60;65.50;;;;;;5014429;28;20046;-80
2023/03/26 10:17:10;;;;;;;9.50;2.58;;;9.60;64.50;;;;;;4968429;28;20046;-80
2023/03/26 10:19:48;;;;;;;17.70;3.72;;;9.60;64.60;;;;;;4964202;28;20046;-82
2023/03/26 10:22:30;;;;;;;15.38;2.90;;;9.70;63.90;;;;;;4961141;28;20050;-80
2023/03/26 10:25:25;;;;;;;15.07;3.58;;;9.80;63.10;;;;;;5055128;28;20042;-80
2023/03/26 10:28:09;;;;;;;13.27;2.78;;;9.80;63.10;;;;;;4970647;28;20137;-82
2023/03/26 10:30:59;;;;;;;;;;;9.80;62.80;;;;;;5001702;28;20799;-80
2023/03/26 10:33:52;;;;;;;14.95;3.90;;;9.70;63.30;;;;;;4969876;28;19918;-79
2023/03/26 10:36:35;;;;;;;14.45;3.13;;;9.80;63.70;;;;;;4971625;28;20046;-80
2023/03/26 10:39:22;;;;;;;12.00;2.45;;;9.80;63.70;;;;;;4981256;28;20406;-80
2023/03/26 10:42:06;;;;;;;10.48;2.65;;;9.90;63.90;;;;;;5053733;28;20041;-79
2023/03/26 10:45:02;;;;;;;17.88;3.13;;;10.00;62.70;;;;;;5051835;28;20482;-79
2023/03/26 10:47:48;;;;;;;15.98;2.97;;;10.10;61.90;;;;;;5054683;28;20039;-79
2023/03/26 10:50:35;;;;;;;11.13;1.90;;;10.10;61.50;;;;;;4965603;28;20047;-79
2023/03/26 10:53:09;;;;;;;15.75;3.03;;;10.20;61.70;;;;;;4964284;28;20131;-79
2023/03/26 10:55:40;;;;;;;11.18;2.75;;;10.20;61.60;;;;;;4976554;28;20104;-79
2023/03/26 10:58:21;;;;;;;11.40;2.08;;;10.20;61.70;;;;;;4977900;28;20384;-80
2023/03/26 11:01:04;;;;;;;15.80;3.55;;;10.30;61.80;;;;;;4956640;28;20042;-80
2023/03/26 11:03:53;;;;;;;14.30;2.20;;;10.30;62.00;;;;;;4962769;28;20038;-79
2023/03/26 11:06:28;;;;;;;9.80;2.22;;;10.40;60.70;;;;;;4961922;28;20397;-80
2023/03/26 11:09:23;;;;;;;10.80;2.33;;;10.50;60.90;;;;;;4963323;28;20515;-80
2023/03/26 11:12:00;;;;;;;12.02;3.03;;;10.50;60.10;;;;;;4995863;28;20647;-81
2023/03/26 11:14:36;;;;;;;15.10;2.38;;;10.50;59.40;;;;;;5051076;28;20051;-81
2023/03/26 11:17:14;;;;;;;11.00;1.98;;;10.60;59.70;;;;;;5053232;28;20126;-80
2023/03/26 11:19:53;;;;;;;10.23;2.25;;;10.60;58.90;;;;;;4959699;28;20435;-80
2023/03/26 11:22:31;;;;;;;12.88;2.83;;;10.60;58.30;;;;;;4960208;28;20751;-80
2023/03/26 11:25:26;;;;;;;11.80;2.28;;;10.60;58.00;;;;;;4961306;28;20042;-80
2023/03/26 11:28:20;;;;;;;13.07;2.20;;;10.60;57.60;;;;;;4961823;28;20409;-80
2023/03/26 11:31:05;;;;;;;14.95;3.22;;;10.60;57.90;;;;;;4962736;28;20042;-80
2023/03/26 11:33:36;;;;;;;7.95;1.80;;;10.60;57.30;;;;;;5067857;28;20046;-80
2023/03/26 11:36:07;;;;;;;12.48;3.20;;;10.60;58.00;;;;;;4993552;28;20035;-80
2023/03/26 11:38:53;;;;;;;11.13;2.55;;;10.50;57.40;;;;;;4965542;28;20494;-79
2023/03/26 11:41:25;;;;;;;15.10;2.97;;;10.50;57.10;;;;;;4963440;28;20529;-78
2023/03/26 11:44:02;;;;;;;13.32;2.95;;;10.40;57.00;;;;;;4963705;28;20050;-79
2023/03/26 11:46:29;;;;;;;10.95;2.15;;;10.40;57.20;;;;;;4994427;28;20049;-79
2023/03/26 11:48:58;;;;;;;10.35;2.53;;;10.40;57.70;;;;;;4977710;28;20034;-79
2023/03/26 11:51:27;;;;;;;12.55;2.42;;;10.40;57.80;;;;;;4962647;28;20145;-80
2023/03/26 11:53:53;;;;;;;11.57;2.00;;;10.40;57.80;;;;;;4961059;28;20077;-80
2023/03/26 11:56:34;;;;;;;10.40;1.92;;;10.40;58.00;;;;;;4959048;28;20484;-80
2023/03/26 11:59:07;;;;;;;8.02;2.08;;;10.40;57.70;;;;;;5054709;28;20505;-78
2023/03/26 12:01:56;;;;;;;10.32;1.90;;;10.40;57.90;;;;;;4970840;28;20395;-80
2023/03/26 12:04:26;;;;;;;7.22;1.90;;;10.40;57.00;;;;;;5004815;28;20035;-77
2023/03/26 12:06:55;;;;;;;10.57;1.95;;;10.40;57.50;;;;;;4946492;28;20170;-77
2023/03/26 12:09:22;;;;;;;8.48;1.73;;;10.40;57.90;;;;;;4952978;28;20043;-77
2023/03/26 12:11:51;;;;;;;14.57;2.90;;;10.40;57.50;;;;;;4936844;28;20498;-77
2023/03/26 12:14:20;;;;;;;12.88;2.92;;;10.40;57.10;;;;;;4953046;28;20038;-77
2023/03/26 12:17:06;;;;;;;11.50;2.53;;;10.40;57.10;;;;;;4952434;28;20043;-77
2023/03/26 12:19:43;;;;;;;10.57;2.70;;;10.40;57.40;;;;;;4968488;28;20053;-77
2023/03/26 12:22:36;;;;;;;11.93;2.67;;;10.40;58.10;;;;;;4952570;28;20160;-77
2023/03/26 12:25:16;;;;;;;12.43;2.55;;;10.30;57.20;;;;;;4968533;28;20046;-77
2023/03/26 12:27:46;;;;;;;13.38;2.60;;;10.30;57.50;;;;;;4952765;28;20046;-77
2023/03/26 12:30:18;;;;;;;14.73;2.95;;;10.20;57.50;;;;;;4952231;28;20463;-77
2023/03/26 12:32:45;;;;;;;15.55;3.50;;;10.20;57.60;;;;;;4968634;28;20168;-77
2023/03/26 12:35:18;;;;;;;12.77;3.00;;;10.20;58.40;;;;;;4968056;28;20402;-77
2023/03/26 12:37:45;;;;;;;14.27;2.75;;;10.20;58.80;;;;;;4952182;28;20180;-77
2023/03/26 12:40:33;;;;;;;10.55;2.30;;;10.20;58.30;;;;;;4952456;28;20042;-77
2023/03/26 12:43:01;;;;;;;9.18;2.45;;;10.10;58.00;;;;;;4952330;28;20051;-77
2023/03/26 12:45:36;;;;;;;10.57;2.38;;;10.10;57.60;;;;;;4968191;28;20039;-77
2023/03/26 12:48:03;;;;;;;15.18;3.00;;;10.00;56.80;;;;;;4934697;28;20091;-77
2023/03/26 12:50:55;;;;;;;12.27;2.47;;;10.00;56.70;;;;;;4936219;28;20050;-77
2023/03/26 12:53:32;;;;;;;11.68;2.78;;;10.00;56.50;;;;;;4953329;28;20047;-77
2023/03/26 12:56:18;;;;;;;9.55;1.95;;;9.90;56.10;;;;;;4953626;28;20051;-77
2023/03/26 12:59:17;;;;;;;10.07;2.33;;;9.80;56.70;;;;;;4968718;28;20039;-77
2023/03/26 13:01:51;;;;;;;8.23;2.17;;;9.80;57.10;;;;;;4968340;28;20131;-77
2023/03/26 13:04:46;;;;;;;11.82;2.88;;;9.80;57.10;;;;;;4951565;28;20067;-77
2023/03/26 13:07:26;;;;;;;11.75;1.98;;;9.80;57.80;;;;;;4951985;28;20049;-76
2023/03/26 13:10:07;;;;;;;14.05;2.42;;;9.80;57.60;;;;;;4970442;28;20039;-79
2023/03/26 13:12:55;;;;;;;12.70;2.10;;;9.80;57.20;;;;;;4971264;28;20050;-77
2023/03/26 13:15:42;;;;;;;9.00;1.80;;;9.80;57.20;;;;;;4955550;28;20046;-80
2023/03/26 13:18:36;;;;;;;9.07;1.95;;;9.80;57.60;;;;;;4955663;28;20045;-79
2023/03/26 13:21:17;;;;;;;9.88;3.38;;;9.80;57.90;;;;;;4956038;28;20387;-80
2023/03/26 13:23:42;;;;;;;18.27;2.60;;;9.80;57.60;;;;;;4973369;28;20482;-80
2023/03/26 13:26:35;;;;;;;10.38;2.33;;;9.80;56.20;;;;;;5074360;28;20046;-80
2023/03/26 13:29:09;;;;;;;10.38;2.40;;;9.80;56.00;;;;;;5056414;28;20039;-80